createdAt,value
2022-12-05T00:01:19.302Z,96427.06
2022-12-05T00:03:48.149Z,96427.06
2022-12-05T00:06:15.239Z,96421.09
2022-12-05T00:08:41.806Z,96427.03
2022-12-05T00:11:20.095Z,96426.75
2022-12-05T00:13:47.693Z,96438.31
2022-12-05T00:16:17.910Z,96433.03
2022-12-05T00:18:44.991Z,96430.41
2022-12-05T00:21:25.763Z,96429.50
2022-12-05T00:23:53.553Z,96435.34
2022-12-05T00:26:20.070Z,96447.97
2022-12-05T00:28:46.397Z,96443.78
2022-12-05T00:31:16.472Z,96444.63
2022-12-05T00:33:43.794Z,96456.44
2022-12-05T00:36:12.907Z,96454.59
2022-12-05T00:38:40.433Z,96444.31
2022-12-05T00:41:10.525Z,96450.19
2022-12-05T00:43:37.311Z,96454.28
2022-12-05T00:46:05.605Z,96469.50
2022-12-05T00:48:32.581Z,96461.88
2022-12-05T00:51:07.704Z,96467.75
2022-12-05T00:53:34.290Z,96468.63
2022-12-05T00:56:24.507Z,96474.56
2022-12-05T00:58:53.153Z,96472.88
2022-12-05T01:01:34.012Z,96466.13
2022-12-05T01:04:03.904Z,96472.06
2022-12-05T01:06:30.404Z,96470.41
2022-12-05T01:08:57.723Z,96478.88
2022-12-05T01:11:25.295Z,96486.41
2022-12-05T01:13:52.568Z,96483.66
2022-12-05T01:16:22.392Z,96480.38
2022-12-05T01:18:49.238Z,96472.78
2022-12-05T01:21:15.716Z,96488.78
2022-12-05T01:23:42.095Z,96486.19
2022-12-05T01:26:12.666Z,96492.88
2022-12-05T01:28:40.100Z,96507.13
2022-12-05T01:31:17.314Z,96512.19
2022-12-05T01:33:43.736Z,96514.47
2022-12-05T01:36:12.688Z,96521.00
2022-12-05T01:38:43.262Z,96513.22
2022-12-05T01:41:17.381Z,96519.16
2022-12-05T01:43:56.768Z,96518.97
2022-12-05T01:46:23.881Z,96523.88
2022-12-05T01:48:53.173Z,96523.75
2022-12-05T01:51:20.497Z,96525.31
2022-12-05T01:53:46.952Z,96528.75
2022-12-05T01:56:14.171Z,96533.00
2022-12-05T01:58:43.169Z,96547.22
2022-12-05T02:01:11.199Z,96547.91
2022-12-05T02:03:37.919Z,96547.84
2022-12-05T02:06:04.814Z,96545.38
2022-12-05T02:08:31.289Z,96538.63
2022-12-05T02:10:58.670Z,96543.66
2022-12-05T02:14:00.183Z,96547.91
2022-12-05T02:16:48.979Z,96550.44
2022-12-05T02:19:48.554Z,96546.91
2022-12-05T02:22:36.735Z,96557.16
2022-12-05T02:25:12.810Z,96552.91
2022-12-05T02:27:42.115Z,96548.59
2022-12-05T02:30:16.091Z,96548.41
2022-12-05T02:33:05.759Z,96557.66
2022-12-05T02:35:50.538Z,96561.91
2022-12-05T02:38:50.287Z,96575.38
2022-12-05T02:41:27.682Z,96569.47
2022-12-05T02:43:53.988Z,96581.28
2022-12-05T02:46:27.117Z,96593.97
2022-12-05T02:48:58.494Z,96582.78
2022-12-05T02:51:26.667Z,96587.00
2022-12-05T02:53:56.971Z,96592.03
2022-12-05T02:56:25.273Z,96600.56
2022-12-05T02:58:54.353Z,96599.88
2022-12-05T03:01:27.221Z,96604.16
2022-12-05T03:03:55.069Z,96609.97
2022-12-05T03:06:29.465Z,96601.53
2022-12-05T03:09:01.725Z,96597.31
2022-12-05T03:11:37.988Z,96582.97
2022-12-05T03:14:07.238Z,96593.09
2022-12-05T03:16:38.669Z,96605.94
2022-12-05T03:19:17.360Z,96622.84
2022-12-05T03:21:58.311Z,96621.88
2022-12-05T03:24:25.239Z,96615.03
2022-12-05T03:27:04.007Z,96606.44
2022-12-05T03:29:42.686Z,96609.81
2022-12-05T03:32:17.802Z,96616.81
2022-12-05T03:34:57.021Z,96622.63
2022-12-05T03:37:48.345Z,96621.00
2022-12-05T03:40:32.954Z,96629.47
2022-12-05T03:43:32.390Z,96628.66
2022-12-05T03:46:12.876Z,96628.78
2022-12-05T03:48:55.022Z,96619.34
2022-12-05T03:51:28.072Z,96615.06
2022-12-05T03:53:59.533Z,96620.94
2022-12-05T03:56:37.603Z,96621.91
2022-12-05T03:59:29.958Z,96615.75
2022-12-05T04:02:01.217Z,96614.03
2022-12-05T04:04:50.542Z,96629.50
2022-12-05T04:07:19.923Z,96641.97
2022-12-05T04:09:52.425Z,96656.31
2022-12-05T04:12:24.295Z,96668.75
2022-12-05T04:14:55.538Z,96661.16
2022-12-05T04:17:32.680Z,96662.03
2022-12-05T04:20:58.310Z,96661.25
2022-12-05T04:23:25.936Z,96654.44
2022-12-05T04:26:23.357Z,96671.22
2022-12-05T04:28:58.842Z,96686.34
2022-12-05T04:31:33.584Z,96692.06
2022-12-05T04:34:07.194Z,96688.53
2022-12-05T04:36:42.820Z,96679.19
2022-12-05T04:39:25.186Z,96669.88
2022-12-05T04:42:02.139Z,96667.41
2022-12-05T04:44:36.461Z,96672.56
2022-12-05T04:47:07.398Z,96688.66
2022-12-05T04:49:36.761Z,96691.06
2022-12-05T04:52:08.567Z,96694.38
2022-12-05T04:54:40.608Z,96686.00
2022-12-05T04:57:15.627Z,96697.91
2022-12-05T04:59:42.066Z,96711.38
2022-12-05T05:02:10.978Z,96708.91
2022-12-05T05:04:51.005Z,96717.25
2022-12-05T05:07:18.288Z,96719.75
2022-12-05T05:09:44.930Z,96710.44
2022-12-05T05:12:18.550Z,96711.22
2022-12-05T05:14:45.437Z,96710.31
2022-12-05T05:17:11.857Z,96710.38
2022-12-05T05:19:38.226Z,96711.97
2022-12-05T05:22:04.584Z,96711.75
2022-12-05T05:24:30.973Z,96713.63
2022-12-05T05:26:57.774Z,96713.50
2022-12-05T05:29:24.302Z,96720.19
2022-12-05T05:31:50.892Z,96728.72
2022-12-05T05:34:17.465Z,96715.16
2022-12-05T05:36:44.025Z,96716.03
2022-12-05T05:39:13.561Z,96721.94
2022-12-05T05:41:39.934Z,96720.19
2022-12-05T05:44:06.344Z,96726.94
2022-12-05T05:46:36.466Z,96731.25
2022-12-05T05:49:03.438Z,96721.88
2022-12-05T05:51:30.297Z,96726.06
2022-12-05T05:53:58.739Z,96732.66
2022-12-05T05:56:25.839Z,96731.75
2022-12-05T05:58:58.115Z,96729.25
2022-12-05T06:01:24.642Z,96730.09
2022-12-05T06:03:51.252Z,96734.38
2022-12-05T06:06:18.934Z,96730.97
2022-12-05T06:08:46.296Z,96735.09
2022-12-05T06:11:18.900Z,96732.47
2022-12-05T06:13:50.042Z,96729.75
2022-12-05T06:16:18.571Z,96722.19
2022-12-05T06:18:45.150Z,96726.44
2022-12-05T06:21:16.153Z,96744.94
2022-12-05T06:23:43.317Z,96740.88
2022-12-05T06:26:15.506Z,96741.59
2022-12-05T06:28:42.235Z,96745.94
2022-12-05T06:31:10.980Z,96747.66
2022-12-05T06:33:38.077Z,96756.78
2022-12-05T06:36:07.542Z,96762.66
2022-12-05T06:38:36.882Z,96758.38
2022-12-05T06:41:09.712Z,96761.91
2022-12-05T06:43:36.054Z,96766.03
2022-12-05T06:46:07.056Z,96774.34
2022-12-05T06:48:33.516Z,96775.25
2022-12-05T06:51:00.350Z,96775.94
2022-12-05T06:53:27.231Z,96783.44
2022-12-05T06:56:01.497Z,96787.72
2022-12-05T06:58:28.194Z,96787.50
2022-12-05T07:01:13.911Z,96789.13
2022-12-05T07:03:40.518Z,96787.34
2022-12-05T07:06:07.775Z,96793.81
2022-12-05T07:08:34.808Z,96803.84
2022-12-05T07:11:02.088Z,96805.50
2022-12-05T07:13:28.962Z,96813.00
2022-12-05T07:15:55.476Z,96820.69
2022-12-05T07:18:21.815Z,96826.69
2022-12-05T07:21:15.140Z,96834.75
2022-12-05T07:23:43.687Z,96831.19
2022-12-05T07:26:13.703Z,96824.41
2022-12-05T07:28:40.215Z,96829.47
2022-12-05T07:31:09.925Z,96829.47
2022-12-05T07:33:37.317Z,96832.13
2022-12-05T07:36:10.045Z,96843.84
2022-12-05T07:38:37.198Z,96846.25
2022-12-05T07:41:14.080Z,96853.03
2022-12-05T07:43:41.546Z,96858.69
2022-12-05T07:46:12.875Z,96867.28
2022-12-05T07:48:39.918Z,96862.28
2022-12-05T07:51:07.705Z,96871.56
2022-12-05T07:53:34.495Z,96872.50
2022-12-05T07:56:02.481Z,96867.22
2022-12-05T07:58:29.619Z,96884.97
2022-12-05T08:00:56.681Z,96882.50
2022-12-05T08:03:23.019Z,96882.38
2022-12-05T08:05:49.657Z,96892.31
2022-12-05T08:08:16.213Z,96899.75
2022-12-05T08:10:42.562Z,96899.81
2022-12-05T08:13:08.911Z,96901.44
2022-12-05T08:15:36.718Z,96908.34
2022-12-05T08:18:03.339Z,96903.34
2022-12-05T08:20:30.603Z,96908.59
2022-12-05T08:22:57.301Z,96912.72
2022-12-05T08:25:23.826Z,96904.41
2022-12-05T08:27:50.224Z,96898.53
2022-12-05T08:30:16.720Z,96896.19
2022-12-05T08:32:43.175Z,96891.16
2022-12-05T08:35:10.141Z,96900.72
2022-12-05T08:37:36.558Z,96899.38
2022-12-05T08:40:04.766Z,96900.31
2022-12-05T08:42:31.584Z,96902.78
2022-12-05T08:44:58.150Z,96909.47
2022-12-05T08:47:24.739Z,96910.50
2022-12-05T08:49:51.101Z,96917.53
2022-12-05T08:52:17.749Z,96917.31
2022-12-05T08:54:44.699Z,96925.94
2022-12-05T08:57:11.045Z,96928.44
2022-12-05T08:59:37.389Z,96923.41
2022-12-05T09:02:03.941Z,96913.50
2022-12-05T09:04:30.378Z,96926.41
2022-12-05T09:06:56.709Z,96928.31
2022-12-05T09:09:23.134Z,96926.66
2022-12-05T09:11:50.774Z,96929.31
2022-12-05T09:14:17.755Z,96922.91
2022-12-05T09:16:45.822Z,96928.38
2022-12-05T09:19:15.876Z,96926.31
2022-12-05T09:21:43.309Z,96929.53
2022-12-05T09:24:11.658Z,96926.25
2022-12-05T09:26:38.211Z,96928.84
2022-12-05T09:29:04.622Z,96928.53
2022-12-05T09:31:31.054Z,96929.16
2022-12-05T09:33:57.946Z,96926.41
2022-12-05T09:36:28.090Z,96923.09
2022-12-05T09:38:58.850Z,96929.41
2022-12-05T09:41:59.348Z,96932.72
2022-12-05T09:44:28.366Z,96937.16
2022-12-05T09:47:15.010Z,96931.69
2022-12-05T09:49:49.922Z,96930.75
2022-12-05T09:52:28.896Z,96929.63
2022-12-05T09:54:55.959Z,96916.81
2022-12-05T09:57:34.264Z,96924.34
2022-12-05T10:00:03.515Z,96921.53
2022-12-05T10:02:44.917Z,96914.88
2022-12-05T10:05:14.502Z,96917.78
2022-12-05T10:08:19.195Z,96917.56
2022-12-05T10:11:01.274Z,96919.28
2022-12-05T10:13:55.715Z,96921.81
2022-12-05T10:16:28.539Z,96924.22
2022-12-05T10:19:10.859Z,96920.47
2022-12-05T10:21:47.401Z,96918.69
2022-12-05T10:24:31.954Z,96923.06
2022-12-05T10:27:02.563Z,96918.81
2022-12-05T10:29:50.684Z,96908.69
2022-12-05T10:32:26.812Z,96902.66
2022-12-05T10:34:59.957Z,96926.28
2022-12-05T10:37:26.587Z,96924.41
2022-12-05T10:39:53.416Z,96924.19
2022-12-05T10:42:26.473Z,96928.06
2022-12-05T10:44:58.087Z,96930.84
2022-12-05T10:47:24.994Z,96924.06
2022-12-05T10:49:52.746Z,96915.50
2022-12-05T10:52:19.727Z,96922.22
2022-12-05T10:54:52.062Z,96922.91
2022-12-05T10:57:28.148Z,96916.22
2022-12-05T10:59:56.329Z,96904.47
2022-12-05T11:02:32.614Z,96906.38
2022-12-05T11:04:59.976Z,96911.59
2022-12-05T11:07:31.053Z,96911.72
2022-12-05T11:10:00.148Z,96914.50
2022-12-05T11:12:35.997Z,96913.75
2022-12-05T11:15:22.367Z,96913.19
2022-12-05T11:17:51.672Z,96915.47
2022-12-05T11:20:17.966Z,96914.69
2022-12-05T11:22:52.164Z,96910.91
2022-12-05T11:25:32.192Z,96902.91
2022-12-05T11:28:03.403Z,96903.66
2022-12-05T11:30:29.838Z,96895.06
2022-12-05T11:33:22.405Z,96894.72
2022-12-05T11:35:51.805Z,96895.16
2022-12-05T11:38:21.675Z,96897.88
2022-12-05T11:41:06.441Z,96891.84
2022-12-05T11:44:06.910Z,96892.41
2022-12-05T11:47:07.625Z,96894.75
2022-12-05T11:50:03.290Z,96894.59
2022-12-05T11:53:03.739Z,96888.78
2022-12-05T11:55:38.894Z,96891.31
2022-12-05T11:58:40.887Z,96898.63
2022-12-05T12:01:32.496Z,96892.59
2022-12-05T12:04:04.844Z,96894.28
2022-12-05T12:06:42.234Z,96894.84
2022-12-05T12:09:36.962Z,96892.59
2022-12-05T12:12:13.310Z,96887.72
2022-12-05T12:15:07.800Z,96895.28
2022-12-05T12:17:41.573Z,96890.09
2022-12-05T12:20:16.800Z,96891.91
2022-12-05T12:22:55.373Z,96888.56
2022-12-05T12:25:48.989Z,96881.19
2022-12-05T12:28:39.463Z,96880.94
2022-12-05T12:31:31.380Z,96883.75
2022-12-05T12:34:18.269Z,96871.31
2022-12-05T12:37:02.389Z,96874.94
2022-12-05T12:40:12.211Z,96875.00
2022-12-05T12:43:44.900Z,96869.34
2022-12-05T12:46:26.005Z,96873.59
2022-12-05T12:49:22.006Z,96871.00
2022-12-05T12:52:03.252Z,96885.28
2022-12-05T12:55:05.164Z,96887.72
2022-12-05T12:58:01.185Z,96887.38
2022-12-05T13:00:42.919Z,96877.25
2022-12-05T13:03:17.099Z,96880.59
2022-12-05T13:05:50.211Z,96884.09
2022-12-05T13:08:35.719Z,96882.22
2022-12-05T13:11:05.924Z,96877.38
2022-12-05T13:13:40.132Z,96882.31
2022-12-05T13:16:08.393Z,96878.97
2022-12-05T13:18:35.672Z,96875.44
2022-12-05T13:21:07.090Z,96876.56
2022-12-05T13:23:54.923Z,96876.38
2022-12-05T13:26:23.770Z,96877.44
2022-12-05T13:28:52.918Z,96873.59
2022-12-05T13:31:33.702Z,96874.56
2022-12-05T13:34:00.276Z,96874.66
2022-12-05T13:36:45.686Z,96875.00
2022-12-05T13:39:33.532Z,96880.06
2022-12-05T13:42:14.252Z,96886.88
2022-12-05T13:44:55.667Z,96879.25
2022-12-05T13:47:51.383Z,96876.00
2022-12-05T13:50:33.007Z,96880.19
2022-12-05T13:53:06.375Z,96878.41
2022-12-05T13:55:36.781Z,96878.31
2022-12-05T13:58:18.553Z,96877.16
2022-12-05T14:00:45.367Z,96885.56
2022-12-05T14:03:33.558Z,96885.41
2022-12-05T14:06:00.137Z,96891.47
2022-12-05T14:08:32.356Z,96888.03
2022-12-05T14:10:58.648Z,96895.69
2022-12-05T14:13:25.412Z,96892.22
2022-12-05T14:15:54.534Z,96893.03
2022-12-05T14:18:20.958Z,96891.13
2022-12-05T14:20:53.694Z,96889.63
2022-12-05T14:23:22.855Z,96902.41
2022-12-05T14:26:13.483Z,96897.94
2022-12-05T14:28:48.752Z,96893.59
2022-12-05T14:31:27.194Z,96892.66
2022-12-05T14:34:27.482Z,96889.91
2022-12-05T14:37:08.861Z,96895.03
2022-12-05T14:39:43.246Z,96902.41
2022-12-05T14:42:42.243Z,96898.22
2022-12-05T14:45:32.513Z,96893.66
2022-12-05T14:48:23.213Z,96893.69
2022-12-05T14:50:52.676Z,96882.28
2022-12-05T14:53:37.123Z,96875.53
2022-12-05T14:56:20.601Z,96864.13
2022-12-05T14:58:49.965Z,96861.69
2022-12-05T15:01:22.190Z,96859.16
2022-12-05T15:04:00.819Z,96871.94
2022-12-05T15:06:27.746Z,96877.81
2022-12-05T15:09:14.642Z,96884.38
2022-12-05T15:11:43.886Z,96887.06
2022-12-05T15:14:21.953Z,96883.81
2022-12-05T15:16:52.310Z,96896.16
2022-12-05T15:19:33.208Z,96896.16
2022-12-05T15:22:06.087Z,96898.84
2022-12-05T15:24:38.515Z,96901.97
2022-12-05T15:27:06.800Z,96898.00
2022-12-05T15:29:33.753Z,96903.84
2022-12-05T15:32:02.983Z,96902.75
2022-12-05T15:34:39.512Z,96907.78
2022-12-05T15:37:22.026Z,96916.19
2022-12-05T15:40:00.581Z,96920.38
2022-12-05T15:42:30.910Z,96927.22
2022-12-05T15:45:15.703Z,96925.31
2022-12-05T15:47:54.990Z,96935.38
2022-12-05T15:50:37.307Z,96942.81
2022-12-05T15:53:20.890Z,96937.75
2022-12-05T15:55:55.858Z,96950.16
2022-12-05T15:58:29.253Z,96951.66
2022-12-05T16:01:01.334Z,96948.09
2022-12-05T16:03:40.010Z,96946.25
2022-12-05T16:06:14.362Z,96941.66
2022-12-05T16:08:45.957Z,96950.25
2022-12-05T16:11:14.316Z,96944.78
2022-12-05T16:13:46.350Z,96941.22
2022-12-05T16:16:22.235Z,96927.88
2022-12-05T16:19:02.868Z,96924.31
2022-12-05T16:21:37.419Z,96928.47
2022-12-05T16:24:19.780Z,96922.59
2022-12-05T16:27:17.274Z,96918.53
2022-12-05T16:29:45.100Z,96913.84
2022-12-05T16:32:23.005Z,96914.47
2022-12-05T16:34:49.757Z,96911.88
2022-12-05T16:37:26.154Z,96913.72
2022-12-05T16:52:31.522Z,96921.13
2022-12-05T16:54:58.197Z,96920.84
2022-12-05T16:57:25.062Z,96919.59
2022-12-05T16:59:51.495Z,96924.59
2022-12-05T17:02:18.826Z,96928.88
2022-12-05T17:04:46.780Z,96924.84
2022-12-05T17:07:13.179Z,96926.97
2022-12-05T17:09:39.637Z,96928.41
2022-12-05T17:12:13.012Z,96929.13
2022-12-05T17:14:39.643Z,96934.28
2022-12-05T17:17:12.735Z,96938.63
2022-12-05T17:19:39.172Z,96935.94
2022-12-05T17:22:06.378Z,96935.13
2022-12-05T17:24:32.729Z,96938.63
2022-12-05T17:26:59.087Z,96945.41
2022-12-05T17:29:25.627Z,96935.84
2022-12-05T17:31:52.380Z,96938.56
2022-12-05T17:34:18.831Z,96934.16
2022-12-05T17:36:45.662Z,96937.38
2022-12-05T17:39:12.554Z,96939.16
2022-12-05T17:41:39.048Z,96933.91
2022-12-05T17:44:06.248Z,96941.63
2022-12-05T17:46:32.645Z,96943.44
2022-12-05T17:48:59.106Z,96943.41
2022-12-05T17:51:26.304Z,96946.13
2022-12-05T17:53:55.612Z,96947.91
2022-12-05T17:56:22.032Z,96950.25
2022-12-05T17:58:48.440Z,96950.97
2022-12-05T18:01:17.894Z,96953.50
2022-12-05T18:03:44.469Z,96947.47
2022-12-05T18:06:11.527Z,96951.66
2022-12-05T18:08:39.829Z,96958.47
2022-12-05T18:11:06.922Z,96952.66
2022-12-05T18:13:34.313Z,96958.09
2022-12-05T18:16:01.258Z,96968.25
2022-12-05T18:18:29.303Z,96954.50
2022-12-05T18:21:10.317Z,96969.94
2022-12-05T18:23:37.983Z,96962.41
2022-12-05T18:26:07.142Z,96964.38
2022-12-05T18:28:37.089Z,96962.53
2022-12-05T18:31:10.090Z,96965.13
2022-12-05T18:33:36.541Z,96965.06
2022-12-05T18:36:15.726Z,96960.59
2022-12-05T18:38:43.278Z,96966.31
2022-12-05T18:41:09.985Z,96963.78
2022-12-05T18:43:36.347Z,96960.72
2022-12-05T18:46:04.515Z,96958.19
2022-12-05T18:48:42.717Z,96960.84
2022-12-05T18:51:18.693Z,96954.91
2022-12-05T18:53:52.207Z,96964.22
2022-12-05T18:56:25.739Z,96954.66
2022-12-05T18:59:21.757Z,96962.25
2022-12-05T19:01:49.342Z,96958.78
2022-12-05T19:04:19.870Z,96953.78
2022-12-05T19:07:00.959Z,96952.06
2022-12-05T19:09:30.134Z,96965.78
2022-12-05T19:11:58.846Z,96970.06
2022-12-05T19:14:27.507Z,96967.47
2022-12-05T19:16:59.760Z,96965.72
2022-12-05T19:19:27.935Z,96963.13
2022-12-05T19:21:54.555Z,96963.13
2022-12-05T19:24:21.048Z,96957.03
2022-12-05T19:26:48.125Z,96966.59
2022-12-05T19:29:15.859Z,96965.06
2022-12-05T19:31:43.070Z,96960.91
2022-12-05T19:34:10.606Z,96960.91
2022-12-05T19:36:39.676Z,96950.69
2022-12-05T19:39:09.272Z,96941.34
2022-12-05T19:41:35.947Z,96935.28
2022-12-05T19:44:02.574Z,96941.34
2022-12-05T19:46:31.224Z,96938.03
2022-12-05T19:48:59.118Z,96939.66
2022-12-05T19:51:25.522Z,96940.47
2022-12-05T19:53:52.207Z,96939.53
2022-12-05T19:56:22.286Z,96940.44
2022-12-05T19:58:50.330Z,96931.94
2022-12-05T20:01:23.081Z,96929.34
2022-12-05T20:03:54.886Z,96926.75
2022-12-05T20:06:23.494Z,96931.88
2022-12-05T20:08:52.323Z,96932.59
2022-12-05T20:11:24.903Z,96925.00
2022-12-05T20:13:53.640Z,96936.75
2022-12-05T20:16:21.898Z,96934.28
2022-12-05T20:18:49.479Z,96923.97
2022-12-05T20:21:19.252Z,96945.13
2022-12-05T20:23:46.431Z,96943.25
2022-12-05T20:26:16.308Z,96942.38
2022-12-05T20:28:42.868Z,96947.63
2022-12-05T20:31:20.948Z,96945.97
2022-12-05T20:33:49.686Z,96961.19
2022-12-05T20:36:21.817Z,96962.88
2022-12-05T20:38:48.382Z,96958.53
2022-12-05T20:41:17.717Z,96950.78
2022-12-05T20:43:47.427Z,96964.47
2022-12-05T20:46:19.379Z,96965.38
2022-12-05T20:48:47.455Z,96956.94
2022-12-05T20:51:16.594Z,96956.00
2022-12-05T20:53:44.535Z,96955.19
2022-12-05T20:56:13.963Z,96952.72
2022-12-05T20:58:41.597Z,96949.28
2022-12-05T21:01:10.165Z,96948.50
2022-12-05T21:03:39.266Z,96946.97
2022-12-05T21:06:18.006Z,96948.72
2022-12-05T21:08:45.206Z,96940.22
2022-12-05T21:11:12.658Z,96936.84
2022-12-05T21:13:39.581Z,96939.38
2022-12-05T21:16:17.559Z,96936.81
2022-12-05T21:18:44.398Z,96941.97
2022-12-05T21:21:16.369Z,96939.28
2022-12-05T21:23:47.783Z,96936.56
2022-12-05T21:26:15.921Z,96932.34
2022-12-05T21:28:43.118Z,96927.22
2022-12-05T21:31:15.919Z,96928.13
2022-12-05T21:33:46.695Z,96926.41
2022-12-05T21:36:13.190Z,96927.41
2022-12-05T21:38:39.607Z,96923.06
2022-12-05T21:41:06.973Z,96915.34
2022-12-05T21:43:35.949Z,96913.47
2022-12-05T21:46:02.820Z,96910.06
2022-12-05T21:48:29.432Z,96926.09
2022-12-05T21:50:56.323Z,96929.56
2022-12-05T21:53:24.901Z,96944.78
2022-12-05T21:56:11.122Z,96941.16
2022-12-05T21:58:42.155Z,96951.34
2022-12-05T22:01:17.206Z,96950.31
2022-12-05T22:03:55.759Z,96951.19
2022-12-05T22:06:24.137Z,96935.09
2022-12-05T22:08:54.462Z,96939.44
2022-12-05T22:11:22.749Z,96942.78
2022-12-05T22:13:50.046Z,96947.03
2022-12-05T22:16:17.741Z,96941.00
2022-12-05T22:18:44.569Z,96935.16
2022-12-05T22:21:17.124Z,96936.03
2022-12-05T22:23:44.198Z,96941.78
2022-12-05T22:26:12.979Z,96943.38
2022-12-05T22:28:39.894Z,96928.91
2022-12-05T22:31:08.386Z,96936.69
2022-12-05T22:33:37.904Z,96936.75
2022-12-05T22:36:07.466Z,96949.31
2022-12-05T22:38:37.442Z,96943.44
2022-12-05T22:41:06.445Z,96949.25
2022-12-05T22:43:34.313Z,96945.97
2022-12-05T22:46:11.894Z,96952.53
2022-12-05T22:48:38.659Z,96953.59
2022-12-05T22:51:06.992Z,96957.69
2022-12-05T22:53:35.072Z,96951.63
2022-12-05T22:56:03.950Z,96950.97
2022-12-05T22:58:30.663Z,96947.38
2022-12-05T23:00:57.178Z,96953.50
2022-12-05T23:03:23.652Z,96951.91
2022-12-05T23:05:50.138Z,96953.53
2022-12-05T23:08:16.544Z,96954.25
2022-12-05T23:10:43.079Z,96943.19
2022-12-05T23:13:09.467Z,96954.97
2022-12-05T23:15:38.997Z,96953.13
2022-12-05T23:18:05.400Z,96955.06
2022-12-05T23:20:32.992Z,96951.09
2022-12-05T23:22:59.401Z,96947.72
2022-12-05T23:25:25.935Z,96946.69
2022-12-05T23:27:52.282Z,96944.03
2022-12-05T23:30:18.790Z,96929.63
2022-12-05T23:32:45.125Z,96928.75
2022-12-05T23:35:11.821Z,96929.50
2022-12-05T23:37:38.177Z,96928.84
2022-12-05T23:40:05.866Z,96934.16
2022-12-05T23:42:32.202Z,96933.09
2022-12-05T23:44:58.550Z,96934.53
2022-12-05T23:47:24.886Z,96931.03
2022-12-05T23:49:51.269Z,96928.50
2022-12-05T23:52:17.638Z,96924.19
2022-12-05T23:54:44.381Z,96921.66
2022-12-05T23:57:16.028Z,96917.50
2022-12-05T23:59:43.882Z,96910.66
